sensor_id;sensor_type;location;lat;lon;timestamp;pressure;altitude;pressure_sealevel;temperature;humidity
57000;BME280;42891;50.006;21.964;2023-03-03T00:01:54;99207.63;;;0.90;69.43
57000;BME280;42891;50.006;21.964;2023-03-03T00:05:54;99208.50;;;0.91;68.25
57000;BME280;42891;50.006;21.964;2023-03-03T00:09:55;99195.91;;;0.81;68.02
57000;BME280;42891;50.006;21.964;2023-03-03T00:13:55;99193.03;;;0.68;68.25
57000;BME280;42891;50.006;21.964;2023-03-03T00:17:56;99194.91;;;0.65;68.93
57000;BME280;42891;50.006;21.964;2023-03-03T00:21:57;99205.63;;;0.78;67.65
57000;BME280;42891;50.006;21.964;2023-03-03T00:25:58;99195.56;;;0.70;68.22
57000;BME280;42891;50.006;21.964;2023-03-03T00:29:59;99204.19;;;0.71;68.01
57000;BME280;42891;50.006;21.964;2023-03-03T00:34:22;99204.47;;;0.64;68.01
57000;BME280;42891;50.006;21.964;2023-03-03T00:38:23;99188.59;;;0.52;66.77
57000;BME280;42891;50.006;21.964;2023-03-03T00:42:26;99181.25;;;0.41;68.12
57000;BME280;42891;50.006;21.964;2023-03-03T00:46:26;99167.47;;;0.39;67.85
57000;BME280;42891;50.006;21.964;2023-03-03T00:50:32;99185.56;;;0.61;68.00
57000;BME280;42891;50.006;21.964;2023-03-03T00:54:32;99190.00;;;0.59;67.71
57000;BME280;42891;50.006;21.964;2023-03-03T00:58:32;99189.09;;;0.60;67.30
57000;BME280;42891;50.006;21.964;2023-03-03T01:02:33;99193.72;;;0.53;68.23
57000;BME280;42891;50.006;21.964;2023-03-03T01:06:33;99180.66;;;0.55;68.25
57000;BME280;42891;50.006;21.964;2023-03-03T01:10:37;99188.91;;;0.44;68.62
57000;BME280;42891;50.006;21.964;2023-03-03T01:14:38;99175.63;;;0.31;67.76
57000;BME280;42891;50.006;21.964;2023-03-03T01:18:39;99199.63;;;0.36;67.13
57000;BME280;42891;50.006;21.964;2023-03-03T01:22:41;99160.56;;;-0.02;68.41
57000;BME280;42891;50.006;21.964;2023-03-03T01:26:41;99174.34;;;0.00;69.02
57000;BME280;42891;50.006;21.964;2023-03-03T01:30:42;99177.44;;;0.08;69.85
57000;BME280;42891;50.006;21.964;2023-03-03T01:34:42;99177.63;;;0.24;70.76
57000;BME280;42891;50.006;21.964;2023-03-03T01:38:42;99186.09;;;0.09;70.21
57000;BME280;42891;50.006;21.964;2023-03-03T01:42:42;99190.19;;;0.14;70.63
57000;BME280;42891;50.006;21.964;2023-03-03T01:51:15;99184.53;;;0.25;71.26
57000;BME280;42891;50.006;21.964;2023-03-03T01:55:22;99174.72;;;-0.09;72.16
57000;BME280;42891;50.006;21.964;2023-03-03T01:59:27;99171.50;;;-0.37;74.16
57000;BME280;42891;50.006;21.964;2023-03-03T02:03:28;99187.41;;;-0.44;75.63
57000;BME280;42891;50.006;21.964;2023-03-03T02:07:30;99184.69;;;-0.63;75.94
57000;BME280;42891;50.006;21.964;2023-03-03T02:11:32;99179.25;;;-0.57;75.50
57000;BME280;42891;50.006;21.964;2023-03-03T02:15:35;99163.00;;;-0.83;76.32
57000;BME280;42891;50.006;21.964;2023-03-03T02:19:45;99173.69;;;-1.14;78.42
57000;BME280;42891;50.006;21.964;2023-03-03T02:28:06;99150.63;;;-1.44;81.51
57000;BME280;42891;50.006;21.964;2023-03-03T02:32:06;99144.16;;;-1.10;80.76
57000;BME280;42891;50.006;21.964;2023-03-03T02:36:14;99165.88;;;-0.69;79.13
57000;BME280;42891;50.006;21.964;2023-03-03T02:40:16;99147.03;;;-0.72;78.94
57000;BME280;42891;50.006;21.964;2023-03-03T02:44:23;99158.41;;;-0.54;78.72
57000;BME280;42891;50.006;21.964;2023-03-03T02:48:23;99147.53;;;-0.64;78.73
57000;BME280;42891;50.006;21.964;2023-03-03T02:52:24;99125.75;;;-0.80;78.91
57000;BME280;42891;50.006;21.964;2023-03-03T02:56:24;99153.22;;;-0.76;78.72
57000;BME280;42891;50.006;21.964;2023-03-03T03:00:24;99142.59;;;-0.70;79.02
57000;BME280;42891;50.006;21.964;2023-03-03T03:04:26;99154.97;;;-0.34;79.44
57000;BME280;42891;50.006;21.964;2023-03-03T03:08:26;99159.66;;;-0.42;78.45
57000;BME280;42891;50.006;21.964;2023-03-03T03:12:27;99141.88;;;-0.31;78.21
57000;BME280;42891;50.006;21.964;2023-03-03T03:16:27;99119.75;;;-0.40;78.56
57000;BME280;42891;50.006;21.964;2023-03-03T03:20:27;99144.75;;;-0.16;79.27
57000;BME280;42891;50.006;21.964;2023-03-03T03:24:28;99154.13;;;0.07;78.69
57000;BME280;42891;50.006;21.964;2023-03-03T03:28:28;99119.75;;;0.02;78.44
57000;BME280;42891;50.006;21.964;2023-03-03T03:32:28;99136.63;;;0.12;78.47
57000;BME280;42891;50.006;21.964;2023-03-03T03:36:29;99141.00;;;-0.09;79.80
57000;BME280;42891;50.006;21.964;2023-03-03T03:40:29;99137.94;;;-0.19;80.25
57000;BME280;42891;50.006;21.964;2023-03-03T03:44:29;99127.81;;;-0.25;81.64
57000;BME280;42891;50.006;21.964;2023-03-03T03:48:30;99141.28;;;0.04;81.44
57000;BME280;42891;50.006;21.964;2023-03-03T03:52:30;99137.34;;;0.15;81.11
57000;BME280;42891;50.006;21.964;2023-03-03T03:56:30;99122.66;;;0.14;80.97
57000;BME280;42891;50.006;21.964;2023-03-03T04:00:31;99121.31;;;0.06;81.10
57000;BME280;42891;50.006;21.964;2023-03-03T04:04:31;99110.44;;;0.16;81.10
57000;BME280;42891;50.006;21.964;2023-03-03T04:08:31;99123.56;;;0.13;81.04
57000;BME280;42891;50.006;21.964;2023-03-03T04:12:32;99122.59;;;0.16;81.59
57000;BME280;42891;50.006;21.964;2023-03-03T04:16:37;99112.59;;;0.07;81.36
57000;BME280;42891;50.006;21.964;2023-03-03T04:20:38;99112.13;;;0.17;81.40
57000;BME280;42891;50.006;21.964;2023-03-03T04:24:39;99115.63;;;-0.03;82.06
57000;BME280;42891;50.006;21.964;2023-03-03T04:28:40;99113.03;;;0.16;82.69
57000;BME280;42891;50.006;21.964;2023-03-03T04:32:41;99088.13;;;0.12;82.37
57000;BME280;42891;50.006;21.964;2023-03-03T04:36:41;99105.47;;;0.12;83.12
57000;BME280;42891;50.006;21.964;2023-03-03T04:40:42;99066.09;;;-0.19;84.21
57000;BME280;42891;50.006;21.964;2023-03-03T04:44:42;99108.00;;;-0.07;85.34
57000;BME280;42891;50.006;21.964;2023-03-03T04:48:42;99096.56;;;-0.22;85.85
57000;BME280;42891;50.006;21.964;2023-03-03T04:52:43;99086.28;;;-0.05;84.97
57000;BME280;42891;50.006;21.964;2023-03-03T04:56:43;99097.88;;;0.26;84.59
57000;BME280;42891;50.006;21.964;2023-03-03T05:00:45;99094.94;;;0.15;84.91
57000;BME280;42891;50.006;21.964;2023-03-03T05:04:45;99097.84;;;0.28;84.49
57000;BME280;42891;50.006;21.964;2023-03-03T05:08:46;99088.06;;;0.33;84.18
57000;BME280;42891;50.006;21.964;2023-03-03T05:12:46;99091.25;;;0.40;83.61
57000;BME280;42891;50.006;21.964;2023-03-03T05:16:47;99100.25;;;0.52;82.95
57000;BME280;42891;50.006;21.964;2023-03-03T05:20:48;99098.91;;;0.62;82.87
57000;BME280;42891;50.006;21.964;2023-03-03T05:24:48;99103.94;;;0.65;82.54
57000;BME280;42891;50.006;21.964;2023-03-03T05:28:49;99110.34;;;0.58;82.80
57000;BME280;42891;50.006;21.964;2023-03-03T05:32:49;99110.09;;;0.64;83.37
57000;BME280;42891;50.006;21.964;2023-03-03T05:36:50;99117.09;;;0.62;82.64
57000;BME280;42891;50.006;21.964;2023-03-03T05:40:50;99104.31;;;0.57;82.86
57000;BME280;42891;50.006;21.964;2023-03-03T05:44:50;99107.81;;;0.56;83.55
57000;BME280;42891;50.006;21.964;2023-03-03T05:48:51;99122.44;;;0.78;82.69
57000;BME280;42891;50.006;21.964;2023-03-03T05:52:52;99116.13;;;0.83;83.01
57000;BME280;42891;50.006;21.964;2023-03-03T05:56:52;99116.13;;;0.83;82.44
57000;BME280;42891;50.006;21.964;2023-03-03T06:00:52;99124.50;;;0.89;82.18
57000;BME280;42891;50.006;21.964;2023-03-03T06:04:53;99115.81;;;0.71;82.57
57000;BME280;42891;50.006;21.964;2023-03-03T06:08:53;99138.22;;;0.92;82.76
57000;BME280;42891;50.006;21.964;2023-03-03T06:12:53;99127.25;;;0.85;82.74
57000;BME280;42891;50.006;21.964;2023-03-03T06:16:54;99128.34;;;0.43;85.10
57000;BME280;42891;50.006;21.964;2023-03-03T06:20:54;99116.59;;;0.54;85.03
57000;BME280;42891;50.006;21.964;2023-03-03T06:24:55;99118.16;;;0.58;84.61
57000;BME280;42891;50.006;21.964;2023-03-03T06:28:55;99121.06;;;0.50;85.44
57000;BME280;42891;50.006;21.964;2023-03-03T06:32:55;99124.88;;;0.62;85.75
57000;BME280;42891;50.006;21.964;2023-03-03T06:36:56;99130.16;;;0.79;85.13
57000;BME280;42891;50.006;21.964;2023-03-03T06:40:56;99130.19;;;0.97;84.86
57000;BME280;42891;50.006;21.964;2023-03-03T06:44:57;99122.22;;;0.82;85.10
57000;BME280;42891;50.006;21.964;2023-03-03T06:48:57;99121.84;;;0.90;84.97
57000;BME280;42891;50.006;21.964;2023-03-03T06:53:09;99130.19;;;0.97;85.21
57000;BME280;42891;50.006;21.964;2023-03-03T06:57:29;99128.38;;;0.99;85.06
57000;BME280;42891;50.006;21.964;2023-03-03T07:01:34;99113.06;;;0.93;85.03
57000;BME280;42891;50.006;21.964;2023-03-03T07:05:35;99123.66;;;1.07;85.39
57000;BME280;42891;50.006;21.964;2023-03-03T07:09:35;99128.94;;;1.06;85.52
57000;BME280;42891;50.006;21.964;2023-03-03T07:13:39;99133.25;;;1.24;85.53
57000;BME280;42891;50.006;21.964;2023-03-03T07:17:45;99133.19;;;1.26;85.30
57000;BME280;42891;50.006;21.964;2023-03-03T07:21:49;99134.72;;;1.30;85.03
57000;BME280;42891;50.006;21.964;2023-03-03T07:25:51;99130.00;;;1.38;85.63
57000;BME280;42891;50.006;21.964;2023-03-03T07:29:54;99138.28;;;1.64;84.59
57000;BME280;42891;50.006;21.964;2023-03-03T07:34:36;99134.22;;;1.41;85.52
57000;BME280;42891;50.006;21.964;2023-03-03T07:38:41;99130.78;;;1.58;85.33
57000;BME280;42891;50.006;21.964;2023-03-03T07:42:45;99124.41;;;1.63;84.89
57000;BME280;42891;50.006;21.964;2023-03-03T07:46:48;99138.06;;;1.68;85.07
57000;BME280;42891;50.006;21.964;2023-03-03T07:50:50;99124.25;;;1.66;85.80
57000;BME280;42891;50.006;21.964;2023-03-03T07:54:51;99128.41;;;1.70;85.53
57000;BME280;42891;50.006;21.964;2023-03-03T07:58:52;99124.56;;;1.60;85.83
57000;BME280;42891;50.006;21.964;2023-03-03T08:02:57;99117.00;;;1.73;85.89
57000;BME280;42891;50.006;21.964;2023-03-03T08:07:01;99113.34;;;1.60;86.08
57000;BME280;42891;50.006;21.964;2023-03-03T08:11:02;99105.03;;;1.69;87.05
57000;BME280;42891;50.006;21.964;2023-03-03T08:15:32;99124.63;;;1.76;86.96
57000;BME280;42891;50.006;21.964;2023-03-03T08:19:35;99120.59;;;1.88;86.59
57000;BME280;42891;50.006;21.964;2023-03-03T08:23:35;99122.94;;;1.93;86.12
57000;BME280;42891;50.006;21.964;2023-03-03T08:27:36;99129.53;;;1.65;85.96
57000;BME280;42891;50.006;21.964;2023-03-03T08:31:36;99126.09;;;1.99;84.88
57000;BME280;42891;50.006;21.964;2023-03-03T08:35:37;99119.88;;;1.84;84.52
57000;BME280;42891;50.006;21.964;2023-03-03T08:39:37;99124.56;;;1.95;83.19
57000;BME280;42891;50.006;21.964;2023-03-03T08:43:38;99129.59;;;1.98;83.44
57000;BME280;42891;50.006;21.964;2023-03-03T08:47:38;99110.41;;;1.83;82.76
57000;BME280;42891;50.006;21.964;2023-03-03T08:51:38;99109.72;;;1.97;81.44
57000;BME280;42891;50.006;21.964;2023-03-03T08:55:40;99133.97;;;1.98;81.47
57000;BME280;42891;50.006;21.964;2023-03-03T08:59:40;99114.13;;;1.95;81.00
57000;BME280;42891;50.006;21.964;2023-03-03T09:03:42;99125.41;;;1.96;81.13
57000;BME280;42891;50.006;21.964;2023-03-03T09:07:43;99120.78;;;2.18;79.38
57000;BME280;42891;50.006;21.964;2023-03-03T09:11:44;99129.59;;;1.98;79.00
57000;BME280;42891;50.006;21.964;2023-03-03T09:15:47;99135.53;;;2.35;78.73
57000;BME280;42891;50.006;21.964;2023-03-03T09:19:48;99127.78;;;2.34;76.12
57000;BME280;42891;50.006;21.964;2023-03-03T09:23:53;99126.53;;;2.41;75.89
57000;BME280;42891;50.006;21.964;2023-03-03T09:27:55;99123.81;;;2.27;75.91
57000;BME280;42891;50.006;21.964;2023-03-03T09:31:57;99122.44;;;2.53;76.13
57000;BME280;42891;50.006;21.964;2023-03-03T09:36:11;99129.69;;;2.64;75.25
57000;BME280;42891;50.006;21.964;2023-03-03T09:40:44;99127.44;;;2.89;74.72
57000;BME280;42891;50.006;21.964;2023-03-03T10:02:37;99153.25;;;2.94;73.46
57000;BME280;42891;50.006;21.964;2023-03-03T10:06:44;99121.31;;;2.25;74.05
57000;BME280;42891;50.006;21.964;2023-03-03T10:40:25;99149.94;;;2.59;71.21
57000;BME280;42891;50.006;21.964;2023-03-03T10:48:56;99147.44;;;3.05;71.02
57000;BME280;42891;50.006;21.964;2023-03-03T10:53:15;99136.28;;;3.03;69.93
57000;BME280;42891;50.006;21.964;2023-03-03T11:01:58;99140.00;;;3.45;69.09
57000;BME280;42891;50.006;21.964;2023-03-03T11:06:05;99127.88;;;3.44;67.73
57000;BME280;42891;50.006;21.964;2023-03-03T11:14:20;99125.00;;;3.49;66.66
57000;BME280;42891;50.006;21.964;2023-03-03T11:18:44;99128.72;;;3.45;67.16
57000;BME280;42891;50.006;21.964;2023-03-03T11:31:37;99101.25;;;3.07;68.47
57000;BME280;42891;50.006;21.964;2023-03-03T11:39:56;99116.06;;;3.22;69.91
57000;BME280;42891;50.006;21.964;2023-03-03T11:48:23;99102.84;;;2.94;72.04
57000;BME280;42891;50.006;21.964;2023-03-03T11:52:36;99078.19;;;2.99;71.83
57000;BME280;42891;50.006;21.964;2023-03-03T11:56:42;99084.19;;;2.85;71.42
57000;BME280;42891;50.006;21.964;2023-03-03T12:01:06;99092.66;;;3.05;71.95
57000;BME280;42891;50.006;21.964;2023-03-03T12:14:21;99088.91;;;2.95;72.68
57000;BME280;42891;50.006;21.964;2023-03-03T12:27:16;99082.06;;;2.76;72.54
57000;BME280;42891;50.006;21.964;2023-03-03T12:31:33;99075.34;;;2.88;72.64
57000;BME280;42891;50.006;21.964;2023-03-03T12:40:11;99079.03;;;3.16;70.82
57000;BME280;42891;50.006;21.964;2023-03-03T12:44:37;99067.41;;;3.52;70.29
57000;BME280;42891;50.006;21.964;2023-03-03T12:48:43;99049.53;;;3.30;69.35
57000;BME280;42891;50.006;21.964;2023-03-03T12:57:29;99068.94;;;3.10;71.37
57000;BME280;42891;50.006;21.964;2023-03-03T13:01:51;99076.22;;;3.19;70.24
57000;BME280;42891;50.006;21.964;2023-03-03T13:10:17;99046.38;;;3.39;68.78
57000;BME280;42891;50.006;21.964;2023-03-03T13:14:49;99050.81;;;3.67;68.80
57000;BME280;42891;50.006;21.964;2023-03-03T13:18:57;99046.09;;;3.29;68.71
57000;BME280;42891;50.006;21.964;2023-03-03T13:23:07;99051.13;;;3.32;69.03
57000;BME280;42891;50.006;21.964;2023-03-03T13:27:13;99038.16;;;3.31;68.63
57000;BME280;42891;50.006;21.964;2023-03-03T13:31:18;99048.16;;;3.83;67.41
57000;BME280;42891;50.006;21.964;2023-03-03T13:35:23;99051.78;;;3.95;65.85
57000;BME280;42891;50.006;21.964;2023-03-03T13:39:32;99015.56;;;3.46;65.14
57000;BME280;42891;50.006;21.964;2023-03-03T13:43:43;99054.91;;;3.57;66.71
57000;BME280;42891;50.006;21.964;2023-03-03T13:47:52;99037.38;;;3.59;68.04
57000;BME280;42891;50.006;21.964;2023-03-03T13:56:41;99048.59;;;3.75;67.82
57000;BME280;42891;50.006;21.964;2023-03-03T14:00:51;99046.25;;;3.71;67.84
57000;BME280;42891;50.006;21.964;2023-03-03T14:09:46;99065.28;;;3.73;66.14
57000;BME280;42891;50.006;21.964;2023-03-03T14:13:58;99054.63;;;3.17;67.93
57000;BME280;42891;50.006;21.964;2023-03-03T14:22:44;99031.50;;;3.55;67.04
57000;BME280;42891;50.006;21.964;2023-03-03T14:26:49;99043.06;;;3.51;67.37
57000;BME280;42891;50.006;21.964;2023-03-03T14:30:52;99054.22;;;3.09;68.83
57000;BME280;42891;50.006;21.964;2023-03-03T14:34:58;99043.06;;;3.21;69.31
57000;BME280;42891;50.006;21.964;2023-03-03T14:39:04;99032.56;;;3.37;69.10
57000;BME280;42891;50.006;21.964;2023-03-03T14:43:45;99031.03;;;3.49;67.81
57000;BME280;42891;50.006;21.964;2023-03-03T14:47:57;99038.88;;;3.49;67.61
57000;BME280;42891;50.006;21.964;2023-03-03T14:52:19;99041.69;;;3.60;67.94
57000;BME280;42891;50.006;21.964;2023-03-03T14:56:36;99050.72;;;3.54;67.13
57000;BME280;42891;50.006;21.964;2023-03-03T15:00:38;99054.22;;;3.39;66.95
57000;BME280;42891;50.006;21.964;2023-03-03T15:04:38;99073.69;;;3.33;67.46
57000;BME280;42891;50.006;21.964;2023-03-03T15:08:40;99058.25;;;3.45;67.35
57000;BME280;42891;50.006;21.964;2023-03-03T15:12:41;99063.59;;;3.27;66.66
57000;BME280;42891;50.006;21.964;2023-03-03T15:16:42;99044.91;;;3.19;66.96
57000;BME280;42891;50.006;21.964;2023-03-03T15:21:07;99062.06;;;3.23;66.89
57000;BME280;42891;50.006;21.964;2023-03-03T15:43:45;99059.25;;;3.12;67.64
57000;BME280;42891;50.006;21.964;2023-03-03T15:52:07;99054.16;;;2.78;68.43
57000;BME280;42891;50.006;21.964;2023-03-03T16:04:38;99064.41;;;2.49;70.26
57000;BME280;42891;50.006;21.964;2023-03-03T16:22:06;99028.91;;;1.99;70.43
57000;BME280;42891;50.006;21.964;2023-03-03T16:34:56;99068.66;;;2.18;71.46
57000;BME280;42891;50.006;21.964;2023-03-03T16:39:17;99040.91;;;2.01;71.69
57000;BME280;42891;50.006;21.964;2023-03-03T16:43:44;99071.09;;;2.06;72.38
57000;BME280;42891;50.006;21.964;2023-03-03T16:56:17;99072.44;;;1.62;74.93
57000;BME280;42891;50.006;21.964;2023-03-03T17:00:57;99061.75;;;1.50;74.12
57000;BME280;42891;50.006;21.964;2023-03-03T17:05:28;99065.47;;;1.27;74.85
57000;BME280;42891;50.006;21.964;2023-03-03T17:13:57;99072.91;;;1.35;74.89
57000;BME280;42891;50.006;21.964;2023-03-03T17:22:17;99080.78;;;1.68;75.08
57000;BME280;42891;50.006;21.964;2023-03-03T17:31:03;99085.31;;;1.47;77.09
57000;BME280;42891;50.006;21.964;2023-03-03T17:39:54;99091.19;;;1.68;75.88
57000;BME280;42891;50.006;21.964;2023-03-03T17:44:20;99105.13;;;1.67;76.25
57000;BME280;42891;50.006;21.964;2023-03-03T17:48:37;99085.59;;;1.76;75.72
57000;BME280;42891;50.006;21.964;2023-03-03T17:57:12;99082.78;;;1.46;76.99
57000;BME280;42891;50.006;21.964;2023-03-03T18:06:04;99091.91;;;1.55;76.41
57000;BME280;42891;50.006;21.964;2023-03-03T18:14:26;99087.59;;;1.36;77.02
57000;BME280;42891;50.006;21.964;2023-03-03T18:22:49;99061.66;;;1.17;77.50
57000;BME280;42891;50.006;21.964;2023-03-03T18:26:52;99070.38;;;1.16;77.03
57000;BME280;42891;50.006;21.964;2023-03-03T18:31:00;99062.63;;;1.14;76.78
57000;BME280;42891;50.006;21.964;2023-03-03T18:35:43;99084.47;;;1.29;76.29
57000;BME280;42891;50.006;21.964;2023-03-03T18:39:48;99075.50;;;1.17;76.39
57000;BME280;42891;50.006;21.964;2023-03-03T18:43:52;99085.84;;;1.00;76.82
57000;BME280;42891;50.006;21.964;2023-03-03T18:52:17;99088.38;;;1.38;75.91
57000;BME280;42891;50.006;21.964;2023-03-03T19:01:10;99081.59;;;1.16;76.68
57000;BME280;42891;50.006;21.964;2023-03-03T19:09:19;99069.13;;;1.23;75.80
57000;BME280;42891;50.006;21.964;2023-03-03T19:13:36;99087.16;;;1.28;76.49
57000;BME280;42891;50.006;21.964;2023-03-03T19:21:39;99070.13;;;1.21;76.51
57000;BME280;42891;50.006;21.964;2023-03-03T19:25:40;99083.63;;;1.46;76.51
57000;BME280;42891;50.006;21.964;2023-03-03T19:34:18;99078.34;;;1.65;76.06
57000;BME280;42891;50.006;21.964;2023-03-03T19:43:01;99069.16;;;1.41;76.01
57000;BME280;42891;50.006;21.964;2023-03-03T19:47:32;99048.50;;;1.38;76.36
57000;BME280;42891;50.006;21.964;2023-03-03T19:52:09;99076.44;;;1.51;76.08
57000;BME280;42891;50.006;21.964;2023-03-03T19:56:23;99069.22;;;1.22;77.15
57000;BME280;42891;50.006;21.964;2023-03-03T20:00:33;99079.41;;;1.44;77.07
57000;BME280;42891;50.006;21.964;2023-03-03T20:09:03;99075.72;;;1.30;77.38
57000;BME280;42891;50.006;21.964;2023-03-03T20:13:33;99043.50;;;0.98;77.61
57000;BME280;42891;50.006;21.964;2023-03-03T20:22:25;99067.16;;;1.28;77.75
57000;BME280;42891;50.006;21.964;2023-03-03T20:26:33;99068.16;;;1.26;78.19
57000;BME280;42891;50.006;21.964;2023-03-03T20:53:04;99076.41;;;1.16;78.78
57000;BME280;42891;50.006;21.964;2023-03-03T21:02:09;99056.44;;;1.17;78.26
57000;BME280;42891;50.006;21.964;2023-03-03T21:06:16;99044.59;;;1.29;77.78
57000;BME280;42891;50.006;21.964;2023-03-03T21:10:21;99049.56;;;1.33;77.74
57000;BME280;42891;50.006;21.964;2023-03-03T21:14:28;99047.03;;;1.14;77.79
57000;BME280;42891;50.006;21.964;2023-03-03T21:18:29;99040.84;;;0.80;78.06
57000;BME280;42891;50.006;21.964;2023-03-03T21:22:30;99036.16;;;1.06;77.59
57000;BME280;42891;50.006;21.964;2023-03-03T21:26:46;99039.44;;;0.92;78.13
57000;BME280;42891;50.006;21.964;2023-03-03T21:31:14;99026.97;;;0.99;78.62
57000;BME280;42891;50.006;21.964;2023-03-03T21:35:18;99025.22;;;0.82;79.00
57000;BME280;42891;50.006;21.964;2023-03-03T21:39:32;99026.31;;;0.76;79.01
57000;BME280;42891;50.006;21.964;2023-03-03T21:47:37;99025.78;;;0.70;78.55
57000;BME280;42891;50.006;21.964;2023-03-03T21:51:37;99021.91;;;0.78;77.89
57000;BME280;42891;50.006;21.964;2023-03-03T21:55:38;99018.09;;;0.85;77.60
57000;BME280;42891;50.006;21.964;2023-03-03T21:59:39;99008.75;;;0.64;78.29
57000;BME280;42891;50.006;21.964;2023-03-03T22:03:39;98997.41;;;0.65;78.19
57000;BME280;42891;50.006;21.964;2023-03-03T22:07:42;98981.38;;;0.38;78.79
57000;BME280;42891;50.006;21.964;2023-03-03T22:11:42;98977.69;;;0.61;78.49
57000;BME280;42891;50.006;21.964;2023-03-03T22:15:43;98991.94;;;0.71;78.30
57000;BME280;42891;50.006;21.964;2023-03-03T22:19:43;98985.00;;;0.53;78.20
57000;BME280;42891;50.006;21.964;2023-03-03T22:23:43;98982.13;;;0.59;77.67
57000;BME280;42891;50.006;21.964;2023-03-03T22:27:44;98983.28;;;0.34;78.26
57000;BME280;42891;50.006;21.964;2023-03-03T22:31:44;98976.25;;;0.36;78.75
57000;BME280;42891;50.006;21.964;2023-03-03T22:35:44;98959.91;;;0.34;78.67
57000;BME280;42891;50.006;21.964;2023-03-03T22:39:44;98961.50;;;0.56;78.54
57000;BME280;42891;50.006;21.964;2023-03-03T22:43:45;98952.19;;;0.50;78.38
57000;BME280;42891;50.006;21.964;2023-03-03T22:47:46;98948.38;;;0.40;78.27
57000;BME280;42891;50.006;21.964;2023-03-03T22:51:47;98945.19;;;0.15;79.41
57000;BME280;42891;50.006;21.964;2023-03-03T22:55:47;98922.72;;;0.33;78.95
57000;BME280;42891;50.006;21.964;2023-03-03T22:59:47;98955.50;;;0.17;79.71
57000;BME280;42891;50.006;21.964;2023-03-03T23:03:48;98943.50;;;0.14;79.98
57000;BME280;42891;50.006;21.964;2023-03-03T23:07:49;98941.88;;;-0.07;81.05
57000;BME280;42891;50.006;21.964;2023-03-03T23:11:49;98932.00;;;0.01;80.75
57000;BME280;42891;50.006;21.964;2023-03-03T23:15:50;98913.47;;;-0.10;80.71
57000;BME280;42891;50.006;21.964;2023-03-03T23:19:50;98931.84;;;0.04;80.44
57000;BME280;42891;50.006;21.964;2023-03-03T23:23:51;98926.94;;;-0.02;80.43
57000;BME280;42891;50.006;21.964;2023-03-03T23:27:51;98942.75;;;-0.07;81.01
57000;BME280;42891;50.006;21.964;2023-03-03T23:31:52;98943.44;;;-0.03;81.38
57000;BME280;42891;50.006;21.964;2023-03-03T23:35:52;98937.00;;;0.06;81.68
57000;BME280;42891;50.006;21.964;2023-03-03T23:39:52;98927.84;;;-0.03;82.49
57000;BME280;42891;50.006;21.964;2023-03-03T23:43:52;98925.25;;;0.16;81.32
57000;BME280;42891;50.006;21.964;2023-03-03T23:47:53;98920.56;;;-0.14;81.63
57000;BME280;42891;50.006;21.964;2023-03-03T23:51:53;98877.94;;;-0.46;81.92
57000;BME280;42891;50.006;21.964;2023-03-03T23:55:53;98887.97;;;-0.39;82.57
57000;BME280;42891;50.006;21.964;2023-03-03T23:59:54;98904.88;;;-0.11;82.33
